Weather reports worldwide

Advertisment
Le Puy, France (7471): temperature & dewpoint: 08.12.2018 00:00:00 - 14.12.2018 00:00:00 (CET)Le Puy, France (7471): temperature 5cm: 08.12.2018 00:00:00 - 14.12.2018 00:00:00 (CET)Le Puy, France (7471): temperature -20cm & temperature -100cm: 08.12.2018 00:00:00 - 14.12.2018 00:00:00 (CET)Le Puy, France (7471): wind speed & gusts: 08.12.2018 00:00:00 - 14.12.2018 00:00:00 (CET)Le Puy, France (7471): wind direction: 08.12.2018 00:00:00 - 14.12.2018 00:00:00 (CET)Le Puy, France (7471): visibility: 08.12.2018 00:00:00 - 14.12.2018 00:00:00 (CET)Le Puy, France (7471): sunshine duration: 08.12.2018 00:00:00 - 14.12.2018 00:00:00 (CET)Le Puy, France (7471): precipitation: 08.12.2018 00:00:00 - 14.12.2018 00:00:00 (CET)
Date & Time tt [°C] td [°C] tt 5cm [°C] tt -20cm [°C] tt -100cm [°C] ff [km/h] ff [kn] fx [km/h] fx [kn] dd vv [km] sd [min] rr [mm]
14.12.2018 00:00:00 0,8 0,1 0,8 4,9 9,8 3 2 5 3 ESE 3,5 0 0,0
13.12.2018 23:00:00 0,8 -0,1 0,9 4,9 9,8 2 1 6 3 E 3,0 0 0,0
13.12.2018 22:00:00 1,2 0,2 1,2 4,9 9,8 4 2 8 4 ESE 4,8 0 0,0
13.12.2018 21:00:00 1,7 0,4 1,5 4,9 9,8 0 0 2 1 N 7 0 0,0
13.12.2018 20:00:00 1,6 0,1 1,4 4,9 9,9 0 0 6 4 N 7 0 0,0
13.12.2018 19:00:00 2,3 0,4 2,0 4,9 9,9 5 3 8 5 NNE 10 0 0,0
13.12.2018 18:00:00 2,4 0,0 2,0 4,8 9,9 0 0 6 3 N 14 0 0,0
13.12.2018 17:00:00 2,8 0,0 2,4 4,8 9,9 0 0 4 2 N 17 0 0,0
13.12.2018 16:00:00 3,1 0,0 3,7 4,8 9,9 3 2 6 3 NNE 18 0 0,0
13.12.2018 15:00:00 3,0 -0,3 4,8 4,9 9,9 0 0 4 2 N 18 0 0,0
13.12.2018 14:00:00 2,1 -0,5 3,5 4,9 9,9 2 1 5 3 NNW 16 0 0,0
13.12.2018 13:00:00 0,0 -1,4 1,8 4,9 9,9 3 2 9 5 N 11 0 0,0
13.12.2018 12:00:00 -0,8 -1,8 0,3 5,0 9,9 4 2 8 5 E 4,9 11 0,0
13.12.2018 11:00:00 -0,1 -1,5 1,8 5,1 9,9 3 2 5 3 E 10 38 0,0
13.12.2018 10:00:00 -0,8 -1,9 -4,6 5,1 9,9 0 0 5 3 N 8 58 0,0
13.12.2018 09:00:00 -3,5 -4,2 -5,0 5,1 9,9 0 0 4 2 N 7 1 0,0
13.12.2018 08:00:00 -3,2 -3,9 -4,4 5,2 9,9 0 0 5 3 N 10 0 0,0
13.12.2018 07:00:00 -3,6 -4,3 -6,6 5,2 9,9 4 2 19 10 W 11 0 0,0
13.12.2018 06:00:00 -4,3 -5,1 -6,7 5,3 9,9 0 0 6 3 N 9 0 0,0
13.12.2018 05:00:00 -3,7 -4,5 -5,8 5,3 9,9 0 0 5 3 N 8 0 0,0
13.12.2018 04:00:00 -2,6 -3,4 -5,6 5,3 9,9 3 2 5 3 NW 5 0 0,0
13.12.2018 03:00:00 -1,4 -2,2 -2,3 5,4 9,9 2 1 5 3 SSE 7 0 0,0
13.12.2018 02:00:00 -2,3 -3,1 -5,3 5,4 9,9 0 0 6 3 N 7 0 0,0
13.12.2018 01:00:00 -2,6 -3,7 -5,2 5,4 9,9 2 1 9 5 W 7 0 0,0
13.12.2018 00:00:00 -1,4 -2,7 -3,5 5,4 9,9 2 1 7 4 W 8 0 0,0
12.12.2018 23:00:00 -0,1 -2,2 -1,4 5,4 9,9 4 2 11 6 ESE 13 0 0,0
12.12.2018 22:00:00 1,2 -1,5 0,2 5,4 9,9 0 0 4 2 N 18 0 0,0
12.12.2018 21:00:00 1,5 -1,9 1,0 5,4 9,9 3 1 7 4 SSW 20 0 0,0
12.12.2018 20:00:00 2,1 -1,5 1,6 5,3 9,9 4 2 5 3 ESE 19 0 0,0
12.12.2018 19:00:00 2,7 -1,8 2,0 5,3 9,9 0 0 8 4 N 20 0 0,0
12.12.2018 18:00:00 2,6 -1,6 1,1 5,3 9,9 6 3 10 5 NW 20 0 0,0
12.12.2018 17:00:00 3,4 -2,6 0,9 5,3 10,0 0 0 5 3 N 20 31 0,0
12.12.2018 16:00:00 3,9 -2,3 4,5 5,2 9,9 0 0 6 4 N 20 16 0,0
12.12.2018 15:00:00 4,1 -3,7 4,8 5,3 9,9 4 2 9 5 ENE 20 47 0,0
12.12.2018 14:00:00 4,4 -1,6 8,4 5,3 9,9 0 0 9 5 N 20 60 0,0
12.12.2018 13:00:00 2,3 -1,3 3,0 5,4 10,0 4 2 8 4 E 18 24 0,0
12.12.2018 12:00:00 0,7 -2,4 3,3 5,4 10,0 0 0 6 3 N 19 10 0,0
12.12.2018 11:00:00 0,1 -2,4 2,7 5,5 10,0 0 0 5 3 N 17 48 0,0
12.12.2018 10:00:00 -1,1 -2,2 -2,5 5,6 10,0 0 0 3 1 N 14 24 0,0
12.12.2018 09:00:00 -2,9 -3,7 -4,4 5,6 10,0 0 0 4 2 N 10 0 0,0
12.12.2018 08:00:00 -3,9 -4,9 -4,9 5,6 10,0 0 0 7 4 N 9 0 -
12.12.2018 07:00:00 -3,6 -4,7 -4,9 5,7 10,0 4 2 19 10 WSW 11 0 0,0
12.12.2018 06:00:00 -3,2 -4,3 -4,3 5,7 10,0 3 1 6 3 WSW 13 0 0,0
12.12.2018 05:00:00 -2,9 -4,2 -4,2 5,8 10,0 0 0 5 3 N 17 0 0,0
12.12.2018 04:00:00 -1,9 -3,5 -3,5 5,9 10,0 0 0 3 2 N 18 0 0,0
12.12.2018 03:00:00 -1,3 -3,0 -2,3 5,9 10,0 0 0 5 3 N 20 0 0,0
12.12.2018 02:00:00 -1,0 -2,6 -1,8 6,0 10,0 2 1 10 6 ENE 20 0 0,0
12.12.2018 01:00:00 -1,4 -2,4 -2,1 6,0 9,9 0 0 4 2 N 20 0 0,0
12.12.2018 00:00:00 -1,7 -2,7 -3,0 6,0 10,0 0 0 5 3 N 19 0 0,0
11.12.2018 23:00:00 -2,9 -3,9 -5,4 6,1 10,0 3 2 6 3 W 20 0 0,0
11.12.2018 22:00:00 -2,9 -4,2 -4,7 6,1 10,0 2 1 8 4 SW 20 0 0,0
11.12.2018 21:00:00 -2,1 -3,4 -3,3 6,1 10,0 7 4 11 6 WSW 20 0 0,0
11.12.2018 20:00:00 -0,9 -2,6 -2,7 6,1 10,0 5 3 9 5 W 20 0 0,0
11.12.2018 19:00:00 -0,1 -2,6 -2,3 6,2 10,0 2 1 5 3 NNW 20 0 0,0
11.12.2018 18:00:00 1,4 -1,8 -0,2 6,1 10,0 2 1 9 5 NE 20 0 0,0
11.12.2018 17:00:00 1,6 -1,8 -0,2 6,1 10,0 2 1 13 7 E 20 18 0,0
11.12.2018 16:00:00 2,5 -1,7 2,9 6,1 10,0 11 6 16 8 NNE 20 0 0,0
11.12.2018 15:00:00 2,6 -1,4 3,4 6,1 10,0 5 3 14 8 NE 20 0 0,0
11.12.2018 14:00:00 2,5 -0,9 3,5 6,2 10,0 9 5 16 9 ENE 20 0 0,0
11.12.2018 13:00:00 2,5 -0,9 3,4 6,2 10,0 10 5 16 9 NNE 20 0 0,0
11.12.2018 12:00:00 2,1 -1,0 3,0 6,2 10,0 10 5 21 11 NNE 20 0 0,0
11.12.2018 11:00:00 2,0 -0,8 2,4 6,3 10,0 11 6 18 10 N 20 1 0,0
11.12.2018 10:00:00 1,2 -0,1 -0,3 6,4 10,0 3 1 6 3 W 20 0 0,0
11.12.2018 09:00:00 -0,3 -1,3 -3,0 6,4 10,0 3 2 5 3 E 20 0 0,0
11.12.2018 08:00:00 -0,8 -2,2 -3,3 6,5 10,0 4 2 15 8 NNE 20 0 0,0
11.12.2018 07:00:00 2,2 -0,4 -0,6 6,5 10,0 12 6 20 11 NW 20 0 0,0
11.12.2018 06:00:00 0,3 -1,3 -0,9 6,6 10,0 12 6 19 10 NNW 20 0 0,0
11.12.2018 05:00:00 0,8 -1,3 -0,4 6,6 10,0 6 4 16 9 WNW 20 0 0,0
11.12.2018 04:00:00 1,3 -0,8 -0,9 6,6 10,0 6 3 19 11 NNW 20 0 0,0
11.12.2018 03:00:00 2,0 -0,6 1,0 6,7 10,0 16 8 26 14 NNW 20 0 0,0
11.12.2018 02:00:00 1,4 -0,1 0,1 6,7 10,0 7 4 15 8 N 20 0 0,0
11.12.2018 01:00:00 1,6 -0,5 0,8 6,8 10,0 15 8 26 14 NW 20 0 0,0
11.12.2018 00:00:00 1,8 -0,3 -0,8 6,8 10,0 5 3 11 6 NNW 20 0 0,0
10.12.2018 23:00:00 1,3 -0,9 -0,7 6,9 10,0 4 2 20 11 N 20 0 0,0
10.12.2018 22:00:00 1,9 -0,8 0,9 6,9 10,0 13 7 26 14 NW 20 0 0,0
10.12.2018 21:00:00 2,4 -0,5 1,2 6,9 10,0 16 8 27 15 NW 20 0 0,0
10.12.2018 20:00:00 2,1 -0,3 0,8 6,9 10,0 13 7 21 11 NW 20 0 0,0
10.12.2018 19:00:00 2,5 -0,1 0,8 6,9 10,0 15 8 23 13 NW 20 0 0,0
10.12.2018 18:00:00 2,7 -0,1 1,8 6,9 10,0 12 6 40 22 NW 20 0 0,0
10.12.2018 17:00:00 3,2 0,3 1,6 6,9 10,1 19 10 30 16 NW 20 4 0,0
10.12.2018 16:00:00 4,3 0,1 4,0 6,9 10,0 17 9 36 19 NW 20 17 0,0
10.12.2018 15:00:00 5,5 0,5 5,4 6,8 10,0 22 12 33 18 NW 20 60 0,0
10.12.2018 14:00:00 4,4 1,9 3,7 6,8 10,0 23 12 44 24 NNW 13 33 0,2
10.12.2018 13:00:00 4,6 2,0 4,7 6,9 10,0 22 12 34 18 NW 14 29 0,0
10.12.2018 12:00:00 4,4 1,6 4,1 6,9 10,0 18 10 34 19 NW 20 10 0,0
10.12.2018 11:00:00 4,1 1,6 3,4 6,9 10,1 21 11 35 19 NW 20 5 0,0
10.12.2018 10:00:00 3,7 1,9 3,1 6,9 10,0 20 11 34 19 WNW 20 9 0,2
10.12.2018 09:00:00 3,9 1,8 2,9 6,9 10,0 23 12 36 20 NW 20 16 0,2
10.12.2018 08:00:00 3,4 1,9 3,0 7,0 10,1 11 6 17 9 NW 20 0 0,2
10.12.2018 07:00:00 4,1 2,0 2,3 7,0 10,0 14 8 24 13 NW 9 0 0,0
10.12.2018 06:00:00 3,3 2,0 2,6 7,1 10,1 11 6 23 12 WNW 14 0 0,4
10.12.2018 05:00:00 3,0 1,2 2,5 7,1 10,0 8 5 18 10 WNW 8 0 0,6
10.12.2018 04:00:00 3,8 1,0 2,6 7,1 10,0 8 4 18 10 NW 8 0 0,2
10.12.2018 03:00:00 4,0 1,0 2,2 7,1 10,0 13 7 27 15 NW 20 0 0,0
10.12.2018 02:00:00 4,3 1,3 2,9 7,2 10,0 16 9 35 19 NW 20 0 0,0
10.12.2018 01:00:00 4,2 1,7 2,8 7,2 10,0 20 11 42 23 WNW 15 0 0,2
10.12.2018 00:00:00 4,5 1,3 3,0 7,2 10,0 27 15 48 26 NW 20 0 0,0
09.12.2018 23:00:00 4,5 2,0 3,5 7,2 10,0 30 16 51 28 WNW 12 0 0,6
09.12.2018 22:00:00 4,8 2,2 3,8 7,3 10,0 26 14 50 27 WNW 11 0 0,0
09.12.2018 21:00:00 4,9 2,4 3,3 7,3 10,0 26 14 47 26 WNW 10 0 0,2
09.12.2018 20:00:00 4,5 2,0 3,3 7,3 10,1 31 17 62 33 WNW 9 0 1,6
09.12.2018 19:00:00 5,4 1,9 3,7 7,3 10,0 28 15 57 31 WNW 20 0 0,4
09.12.2018 18:00:00 5,5 1,6 4,1 7,3 10,0 27 15 54 29 WNW 20 0 0,0
09.12.2018 17:00:00 6,0 0,7 5,4 7,3 10,1 33 18 66 35 WNW 20 18 0,0
09.12.2018 16:00:00 6,0 0,9 5,3 7,3 10,0 37 20 72 39 WNW 20 2 0,0
09.12.2018 15:00:00 6,0 1,1 4,9 7,3 10,0 32 18 78 42 W 20 11 0,4
09.12.2018 14:00:00 5,6 2,9 4,9 7,3 10,0 27 14 51 28 WNW 8 0 0,8
09.12.2018 13:00:00 5,6 3,6 5,0 7,3 10,0 16 9 35 19 WNW 11 0 1,8
09.12.2018 12:00:00 5,3 3,1 4,9 7,3 10,0 18 10 32 17 WNW 6 0 2,4
09.12.2018 11:00:00 6,5 1,8 5,5 7,3 10,0 18 10 35 19 WNW 19 0 0,0
09.12.2018 10:00:00 6,7 0,1 5,4 7,3 10,0 24 13 74 40 WNW 20 22 0,0
09.12.2018 09:00:00 7,0 0,9 5,2 7,3 10,0 42 23 79 42 W 20 2 0,2
09.12.2018 08:00:00 8,0 2,2 7,6 7,3 10,0 22 12 81 44 WNW 20 0 0,0
09.12.2018 07:00:00 8,4 2,0 8,0 7,3 10,0 36 20 75 40 W 20 0 0,2
09.12.2018 06:00:00 9,0 3,2 8,5 7,3 10,0 27 15 60 33 W 20 0 0,0
09.12.2018 05:00:00 8,9 3,9 8,2 7,4 10,0 26 14 63 34 W 20 0 0,0
09.12.2018 04:00:00 8,7 4,3 7,9 7,4 10,0 32 17 64 35 W 20 0 0,0
09.12.2018 03:00:00 8,5 3,5 7,8 7,4 10,1 25 13 55 30 W 20 0 0,0
09.12.2018 02:00:00 8,3 3,7 7,7 7,4 10,0 17 9 57 31 W 20 0 0,0
09.12.2018 01:00:00 8,2 4,0 7,6 7,4 10,0 34 19 72 39 W 20 0 0,0
09.12.2018 00:00:00 8,5 3,9 7,2 7,4 10,0 39 21 67 36 W 20 0 0,0
08.12.2018 23:00:00 7,7 3,4 6,6 7,4 10,1 26 14 54 29 W 20 0 0,0
08.12.2018 22:00:00 7,2 3,4 6,5 7,4 10,1 22 12 53 29 W 20 0 0,0
08.12.2018 21:00:00 7,3 3,5 5,3 7,4 10,0 13 7 33 18 W 20 0 0,0
08.12.2018 20:00:00 6,8 3,6 4,7 7,4 10,0 9 5 18 10 WSW 20 0 0,0
08.12.2018 19:00:00 5,8 3,1 3,8 7,4 10,1 6 3 14 8 SSE 20 0 0,0
08.12.2018 18:00:00 6,1 2,7 4,8 7,4 10,0 7 4 35 19 W 20 0 0,0
08.12.2018 17:00:00 7,1 2,4 6,8 7,3 10,0 8 4 18 10 WNW 20 0 0,0
08.12.2018 16:00:00 7,4 2,5 7,5 7,3 10,0 6 4 24 13 SW 20 0 0,0
08.12.2018 15:00:00 7,4 2,3 7,8 7,3 10,1 5 3 31 17 WSW 20 0 0,0
08.12.2018 14:00:00 7,4 1,7 7,3 7,4 10,1 15 8 42 23 W 20 13 0,0
08.12.2018 13:00:00 6,6 1,5 6,9 7,4 10,1 26 14 44 24 WNW 20 0 0,0
08.12.2018 12:00:00 6,1 1,0 6,5 7,4 10,0 16 9 38 20 W 20 0 0,0
08.12.2018 11:00:00 5,5 0,7 5,4 7,4 10,0 17 9 35 19 WNW 20 4 0,0
08.12.2018 10:00:00 4,9 0,3 4,4 7,5 10,0 14 7 40 21 W 20 21 0,0
08.12.2018 09:00:00 4,1 -0,1 3,1 7,6 10,1 11 6 34 18 W 20 12 0,0
08.12.2018 08:00:00 3,8 0,1 2,8 7,6 10,1 16 9 37 20 W 20 0 0,0
08.12.2018 07:00:00 3,5 -0,5 2,3 7,7 10,1 6 4 19 11 W 20 0 0,0
08.12.2018 06:00:00 3,4 -1,2 2,8 7,7 10,1 4 2 19 10 W 20 0 0,0
08.12.2018 05:00:00 3,1 -0,9 2,1 7,8 10,1 10 6 19 11 WNW 20 0 0,0
08.12.2018 04:00:00 2,9 -0,6 0,5 7,8 10,0 3 1 9 5 WSW 20 0 0,0
08.12.2018 03:00:00 3,1 -0,5 1,6 7,9 10,1 6 4 29 16 NW 20 0 0,0
08.12.2018 02:00:00 3,5 -0,3 1,0 7,9 10,1 13 7 35 19 NW 20 0 0,0
08.12.2018 01:00:00 3,9 -0,9 2,9 7,9 10,0 18 10 46 25 WNW 20 0 0,0
08.12.2018 00:00:00 4,3 -0,9 3,4 8,0 10,1 27 14 50 27 WNW 20 0 0,0

tt = temperature
td = dewpoint
tt 5cm = temperature 5cm
tt -20cm = temperature -20cm
tt -100cm = temperature -100cm
ff = wind speed
fx = gusts
dd = wind direction
vv = visibility
sd = sunshine duration
rr = precipitation

Next stations